Time;durP1;ratioP1;P1;durP2;ratioP2;P2;SDS_P1;SDS_P2;PMS_P1;PMS_P2;Temp;Humidity;BMP_temperature;BMP_pressure;BME280_temperature;BME280_humidity;BME280_pressure;Samples;Min_cycle;Max_cycle;Signal;HPM_P1;HPM_P2
2022/04/21 00:00:38;;;;;;;8.95;5.28;;;17.60;52.60;;;;;;3912887;30;20148;-65
2022/04/21 00:03:01;;;;;;;6.90;5.35;;;17.70;52.60;;;;;;3912725;30;20508;-65
2022/04/21 00:05:23;;;;;;;9.50;5.88;;;17.60;52.60;;;;;;3912534;30;20556;-65
2022/04/21 00:07:48;;;;;;;9.13;5.97;;;17.60;52.70;;;;;;3912304;30;20063;-65
2022/04/21 00:10:10;;;;;;;8.60;6.15;;;17.60;52.70;;;;;;3912385;30;20252;-65
2022/04/21 00:12:34;;;;;;;9.10;6.82;;;17.60;52.80;;;;;;3896835;30;20477;-65
2022/04/21 00:14:57;;;;;;;10.85;6.20;;;17.60;52.80;;;;;;3897939;30;20119;-65
2022/04/21 00:17:19;;;;;;;7.45;6.05;;;17.60;52.90;;;;;;3908803;30;20052;-67
2022/04/21 00:19:41;;;;;;;10.43;7.15;;;17.60;52.90;;;;;;3898028;30;20527;-65
2022/04/21 00:24:43;;;;;;;7.88;6.40;;;17.60;52.80;;;;;;3910098;30;20077;-65
2022/04/21 00:27:05;;;;;;;9.98;7.13;;;17.50;52.90;;;;;;3912061;30;20138;-66
2022/04/21 00:29:27;;;;;;;10.75;7.10;;;17.50;52.80;;;;;;3911957;30;20457;-65
2022/04/21 00:31:51;;;;;;;6.97;6.30;;;17.60;52.90;;;;;;3897598;30;20061;-65
2022/04/21 00:34:14;;;;;;;9.15;7.40;;;17.50;52.90;;;;;;3897799;30;20502;-65
2022/04/21 00:36:36;;;;;;;8.98;6.55;;;17.50;53.00;;;;;;3897906;30;20128;-65
2022/04/21 00:38:58;;;;;;;9.60;6.68;;;17.50;53.10;;;;;;3896813;30;20113;-65
2022/04/21 00:41:20;;;;;;;8.88;6.78;;;17.50;53.20;;;;;;3910736;30;20155;-65
2022/04/21 00:43:42;;;;;;;8.93;6.40;;;17.50;53.30;;;;;;3912266;30;20065;-65
2022/04/21 00:46:06;;;;;;;10.27;6.85;;;17.50;53.30;;;;;;3912410;30;20072;-64
2022/04/21 00:48:30;;;;;;;8.55;6.65;;;17.50;53.40;;;;;;3912022;30;20486;-65
2022/04/21 00:50:52;;;;;;;10.48;6.70;;;17.50;53.10;;;;;;3912128;30;20064;-64
2022/04/21 00:53:14;;;;;;;10.35;6.80;;;17.40;53.30;;;;;;3912321;30;20148;-65
2022/04/21 00:55:38;;;;;;;8.93;6.72;;;17.40;53.40;;;;;;3912282;30;20110;-65
2022/04/21 00:58:02;;;;;;;7.90;6.78;;;17.40;53.40;;;;;;3912113;30;20049;-65
2022/04/21 01:00:24;;;;;;;10.15;6.45;;;17.40;53.40;;;;;;3911839;30;20064;-65
2022/04/21 01:02:46;;;;;;;9.27;6.40;;;17.40;53.40;;;;;;3912101;30;20130;-65
2022/04/21 01:05:10;;;;;;;9.90;6.53;;;17.40;53.60;;;;;;3912109;30;20173;-65
2022/04/21 01:07:34;;;;;;;8.80;6.70;;;17.40;53.70;;;;;;3914840;30;20087;-65
2022/04/21 01:09:56;;;;;;;9.45;6.65;;;17.40;53.70;;;;;;3901335;30;20060;-65
2022/04/21 01:12:18;;;;;;;10.55;7.30;;;17.40;53.70;;;;;;3900336;30;20446;-65
2022/04/21 01:14:40;;;;;;;7.18;6.45;;;17.40;53.70;;;;;;3900227;30;20505;-65
2022/04/21 01:17:03;;;;;;;8.63;6.28;;;17.40;53.70;;;;;;3900384;30;20065;-65
2022/04/21 01:19:25;;;;;;;10.20;6.97;;;17.40;53.70;;;;;;3900270;30;20099;-65
2022/04/21 01:21:48;;;;;;;8.90;6.88;;;17.40;53.70;;;;;;3914515;30;20067;-65
2022/04/21 01:24:10;;;;;;;9.60;7.15;;;17.40;53.70;;;;;;3914027;30;20531;-65
2022/04/21 01:26:35;;;;;;;10.10;6.47;;;17.40;53.60;;;;;;3912319;30;20059;-65
2022/04/21 01:28:58;;;;;;;10.13;6.68;;;17.30;53.30;;;;;;3911896;30;20067;-65
2022/04/21 01:31:23;;;;;;;6.72;6.03;;;17.30;53.30;;;;;;3913529;30;20509;-65
2022/04/21 01:33:44;;;;;;;8.02;6.07;;;17.30;53.10;;;;;;3900907;30;20053;-65
2022/04/21 01:36:07;;;;;;;8.25;6.95;;;17.30;52.90;;;;;;3914573;30;20563;-65
2022/04/21 01:41:12;;;;;;;8.65;6.50;;;17.30;54.10;;;;;;3913904;30;20088;-65
2022/04/21 01:43:34;;;;;;;9.45;6.75;;;17.30;53.20;;;;;;3914607;30;20049;-66
2022/04/21 01:45:56;;;;;;;9.27;7.07;;;17.20;53.40;;;;;;3913773;30;20440;-66
2022/04/21 01:48:18;;;;;;;9.10;6.70;;;17.20;53.60;;;;;;3914399;30;20052;-66
2022/04/21 01:50:40;;;;;;;10.73;7.13;;;17.20;53.50;;;;;;3913848;30;20083;-66
2022/04/21 01:53:03;;;;;;;11.63;7.40;;;17.20;53.30;;;;;;3914132;30;20397;-66
2022/04/21 01:55:27;;;;;;;10.75;7.40;;;17.10;53.40;;;;;;3914505;30;20059;-65
2022/04/21 01:57:49;;;;;;;10.93;7.30;;;17.10;53.50;;;;;;3914281;30;20056;-65
2022/04/21 02:00:12;;;;;;;10.20;7.82;;;17.10;53.40;;;;;;3913868;30;20086;-66
2022/04/21 02:02:34;;;;;;;9.43;7.10;;;17.10;53.20;;;;;;3914162;30;20079;-66
2022/04/21 02:04:59;;;;;;;8.77;7.40;;;17.10;53.50;;;;;;3914105;30;20056;-66
2022/04/21 02:07:21;;;;;;;9.30;7.10;;;17.10;54.50;;;;;;3913699;30;20095;-66
2022/04/21 02:09:43;;;;;;;10.98;7.65;;;17.10;53.80;;;;;;3913784;30;20467;-66
2022/04/21 02:12:11;;;;;;;10.95;7.72;;;17.00;53.90;;;;;;3914006;30;20072;-65
2022/04/21 02:14:33;;;;;;;10.68;8.13;;;17.00;53.70;;;;;;3913877;30;20071;-65
2022/04/21 02:16:55;;;;;;;9.93;7.38;;;17.00;54.00;;;;;;3913143;30;20080;-65
2022/04/21 02:19:17;;;;;;;10.18;7.55;;;17.00;54.20;;;;;;3913920;30;20191;-65
2022/04/21 02:21:39;;;;;;;9.85;7.88;;;17.00;54.30;;;;;;3913570;30;20416;-65
2022/04/21 02:24:01;;;;;;;11.38;7.50;;;17.00;54.40;;;;;;3911612;30;20150;-65
2022/04/21 02:26:23;;;;;;;10.38;8.18;;;17.00;54.40;;;;;;3914199;30;20088;-65
2022/04/21 02:28:47;;;;;;;15.02;7.90;;;17.00;54.50;;;;;;3914117;30;20068;-66
2022/04/21 02:31:09;;;;;;;9.77;7.55;;;17.00;54.50;;;;;;3913234;30;20088;-65
2022/04/21 02:33:32;;;;;;;10.65;7.00;;;17.00;54.60;;;;;;3913868;30;20056;-64
2022/04/21 02:35:54;;;;;;;11.55;7.65;;;17.00;54.70;;;;;;3913985;30;20067;-65
2022/04/21 02:38:16;;;;;;;9.05;7.10;;;17.00;54.70;;;;;;3913864;30;20053;-65
2022/04/21 02:40:38;;;;;;;10.70;7.30;;;17.00;54.70;;;;;;3913258;30;20095;-65
2022/04/21 02:43:00;;;;;;;10.73;7.30;;;17.00;54.80;;;;;;3911603;30;20045;-65
2022/04/21 02:45:24;;;;;;;8.23;6.25;;;17.00;55.40;;;;;;3912995;30;20068;-65
2022/04/21 02:47:46;;;;;;;8.48;6.82;;;17.00;55.50;;;;;;3913257;30;20110;-64
2022/04/21 02:50:11;;;;;;;7.28;6.30;;;17.00;54.80;;;;;;3912726;30;20060;-65
2022/04/21 02:52:35;;;;;;;7.10;6.18;;;17.00;54.80;;;;;;3913210;30;20061;-65
2022/04/21 02:57:37;;;;;;;10.30;6.72;;;17.00;55.20;;;;;;3913656;30;20048;-65
2022/04/21 03:00:00;;;;;;;7.55;6.32;;;17.00;54.70;;;;;;3912821;30;20106;-65
2022/04/21 03:02:24;;;;;;;9.95;7.30;;;17.00;54.70;;;;;;3913691;30;20703;-65
2022/04/21 03:04:46;;;;;;;7.38;6.65;;;16.90;54.60;;;;;;3913139;30;20122;-65
2022/04/21 03:07:09;;;;;;;9.02;6.78;;;17.00;54.60;;;;;;3913389;30;20053;-64
2022/04/21 03:09:32;;;;;;;8.95;6.72;;;16.90;54.50;;;;;;3913002;30;20167;-65
2022/04/21 03:11:54;;;;;;;8.00;6.35;;;17.00;54.70;;;;;;3913417;30;20061;-65
2022/04/21 03:14:18;;;;;;;7.72;6.45;;;16.90;55.50;;;;;;3899829;30;20052;-65
2022/04/21 03:16:40;;;;;;;7.93;6.05;;;16.90;55.60;;;;;;3913142;30;20151;-65
2022/04/21 03:19:03;;;;;;;9.45;6.50;;;16.90;54.90;;;;;;3913021;30;20118;-65
2022/04/21 03:26:50;;;;;;;7.55;6.30;;;16.90;55.00;;;;;;3893276;30;20076;-66
2022/04/21 03:29:12;;;;;;;8.98;6.55;;;16.90;55.70;;;;;;3909030;30;20044;-65
2022/04/21 03:31:35;;;;;;;6.55;5.95;;;16.90;55.70;;;;;;3911881;30;20142;-66
2022/04/21 03:33:56;;;;;;;6.82;5.90;;;16.90;55.00;;;;;;3913178;30;20071;-66
2022/04/21 03:36:20;;;;;;;6.85;5.60;;;16.90;55.00;;;;;;3913260;30;20083;-65
2022/04/21 03:38:43;;;;;;;7.97;6.22;;;16.90;55.00;;;;;;3912993;30;20052;-65
2022/04/21 03:41:05;;;;;;;8.02;6.25;;;16.90;55.00;;;;;;3905441;30;20060;-66
2022/04/21 03:43:27;;;;;;;9.60;7.38;;;16.90;55.00;;;;;;3912609;30;20802;-66
2022/04/21 03:45:49;;;;;;;8.65;6.15;;;16.90;55.10;;;;;;3912845;30;20056;-66
2022/04/21 03:48:13;;;;;;;7.97;6.07;;;16.90;55.10;;;;;;3912775;30;20091;-66
2022/04/21 03:50:35;;;;;;;7.25;6.18;;;16.90;55.10;;;;;;3896932;30;20057;-66
2022/04/21 03:52:59;;;;;;;10.55;6.80;;;16.80;55.00;;;;;;3898426;30;20067;-66
2022/04/21 03:55:21;;;;;;;10.00;7.35;;;16.90;55.10;;;;;;3898240;30;20045;-66
2022/04/21 03:57:43;;;;;;;7.80;7.00;;;16.80;55.10;;;;;;3897899;30;20061;-67
2022/04/21 04:00:06;;;;;;;8.35;6.60;;;16.90;55.20;;;;;;3897916;30;20065;-66
2022/04/21 04:02:32;;;;;;;8.45;6.50;;;16.80;55.20;;;;;;3898178;30;20055;-66
2022/04/21 04:04:54;;;;;;;7.63;6.32;;;16.80;55.20;;;;;;3898080;30;20520;-66
2022/04/21 04:12:38;;;;;;;7.07;6.10;;;16.80;55.20;;;;;;3898089;30;20065;-66
2022/04/21 04:15:02;;;;;;;10.52;6.65;;;16.80;55.30;;;;;;3897662;30;20485;-66
2022/04/21 04:17:25;;;;;;;8.35;6.57;;;16.80;55.40;;;;;;3898114;30;20150;-66
2022/04/21 04:19:47;;;;;;;9.52;6.93;;;16.80;55.40;;;;;;3898286;30;20065;-66
2022/04/21 04:22:10;;;;;;;8.52;6.75;;;16.80;55.40;;;;;;3911821;30;20139;-66
2022/04/21 04:24:32;;;;;;;8.23;6.65;;;16.80;55.40;;;;;;3912195;30;20052;-66
2022/04/21 04:26:56;;;;;;;7.82;6.53;;;16.80;56.00;;;;;;3912399;30;20061;-66
2022/04/21 04:29:22;;;;;;;9.73;6.88;;;16.80;55.40;;;;;;3911589;30;20421;-66
2022/04/21 04:31:45;;;;;;;8.98;6.35;;;16.80;55.50;;;;;;3906674;30;20062;-66
2022/04/21 04:34:09;;;;;;;19.40;6.20;;;16.80;55.50;;;;;;3912000;30;20134;-67
2022/04/21 04:36:31;;;;;;;10.90;7.32;;;16.80;55.50;;;;;;3898587;30;20049;-66
2022/04/21 04:38:53;;;;;;;12.27;6.25;;;16.70;55.50;;;;;;3898963;30;20049;-66
2022/04/21 04:43:56;;;;;;;8.35;6.70;;;16.70;55.50;;;;;;3901236;30;20147;-66
2022/04/21 04:46:35;;;;;;;7.60;6.15;;;16.70;55.50;;;;;;3914901;30;20497;-67
2022/04/21 04:48:57;;;;;;;9.73;6.50;;;16.70;55.50;;;;;;3914761;30;20063;-66
2022/04/21 04:51:19;;;;;;;9.93;6.63;;;16.70;55.60;;;;;;3915010;30;20046;-67
2022/04/21 04:53:42;;;;;;;8.68;6.47;;;16.70;55.50;;;;;;3915271;30;20410;-66
2022/04/21 04:56:04;;;;;;;7.30;6.60;;;16.70;55.60;;;;;;3914993;30;20049;-66
2022/04/21 04:58:26;;;;;;;8.70;6.43;;;16.70;55.60;;;;;;3914918;30;20053;-66
2022/04/21 05:00:50;;;;;;;7.82;6.53;;;16.70;55.60;;;;;;3904562;30;20057;-67
2022/04/21 05:03:12;;;;;;;9.68;7.18;;;16.70;55.60;;;;;;3915219;30;20060;-66
2022/04/21 05:05:34;;;;;;;8.07;6.53;;;16.70;55.60;;;;;;3914912;30;20159;-66
2022/04/21 05:07:56;;;;;;;10.38;7.30;;;16.70;55.60;;;;;;3915263;30;20060;-66
2022/04/21 05:10:19;;;;;;;10.52;7.10;;;16.70;55.60;;;;;;3900142;30;20060;-66
2022/04/21 05:12:41;;;;;;;8.75;6.90;;;16.70;55.70;;;;;;3886908;30;20065;-67
2022/04/21 05:15:04;;;;;;;6.85;6.15;;;16.70;55.70;;;;;;3900286;30;20053;-66
2022/04/21 05:17:29;;;;;;;8.75;5.65;;;16.70;55.70;;;;;;3900374;30;20061;-66
2022/04/21 05:20:13;;;;;;;9.32;7.28;;;16.70;55.60;;;;;;3913613;30;20095;-67
2022/04/21 05:22:37;;;;;;;7.90;6.85;;;16.70;55.40;;;;;;3914735;30;20055;-66
2022/04/21 05:25:01;;;;;;;7.15;6.38;;;16.80;55.40;;;;;;3914834;30;20060;-66
2022/04/21 05:27:23;;;;;;;7.65;6.55;;;16.80;55.30;;;;;;3914035;30;20052;-66
2022/04/21 05:32:28;;;;;;;7.88;6.57;;;16.80;54.50;;;;;;3911763;30;20056;-67
2022/04/21 05:34:51;;;;;;;8.27;6.75;;;16.80;54.80;;;;;;3914370;30;20064;-67
2022/04/21 05:37:14;;;;;;;7.35;6.38;;;16.80;55.10;;;;;;3914839;30;20044;-66
2022/04/21 05:39:39;;;;;;;8.25;6.53;;;16.80;55.30;;;;;;3914061;30;20060;-67
2022/04/21 05:42:01;;;;;;;9.98;6.88;;;16.80;55.20;;;;;;3914893;30;20076;-66
2022/04/21 05:44:23;;;;;;;9.05;6.57;;;16.80;54.90;;;;;;3914259;30;20056;-67
2022/04/21 05:46:46;;;;;;;8.68;5.90;;;16.90;55.10;;;;;;3914263;30;20063;-67
2022/04/21 05:49:10;;;;;;;6.95;6.25;;;16.90;55.00;;;;;;3914311;30;20473;-67
2022/04/21 05:51:33;;;;;;;7.55;6.60;;;16.90;54.90;;;;;;3914811;30;20163;-66
2022/04/21 05:53:59;;;;;;;7.38;5.97;;;16.90;54.70;;;;;;3913565;30;20076;-65
2022/04/21 05:56:21;;;;;;;7.25;5.90;;;16.90;54.50;;;;;;3913169;30;20059;-65
2022/04/21 05:58:43;;;;;;;6.10;5.50;;;16.90;54.60;;;;;;3914251;30;20436;-65
2022/04/21 06:01:07;;;;;;;7.75;6.00;;;16.90;54.60;;;;;;3900967;30;20055;-65
2022/04/21 06:03:29;;;;;;;8.55;6.28;;;16.80;54.40;;;;;;3913253;30;20057;-65
2022/04/21 06:05:53;;;;;;;8.48;5.68;;;16.80;54.50;;;;;;3913749;30;20065;-67
2022/04/21 06:08:15;;;;;;;6.68;5.95;;;16.80;54.60;;;;;;3900338;30;20060;-66
2022/04/21 06:10:37;;;;;;;8.07;6.05;;;16.70;54.30;;;;;;3914158;30;20048;-66
2022/04/21 06:13:01;;;;;;;5.90;5.22;;;16.70;54.20;;;;;;3914360;30;20079;-66
2022/04/21 06:15:23;;;;;;;7.40;6.30;;;16.70;54.30;;;;;;3900836;30;20111;-66
2022/04/21 06:17:45;;;;;;;6.28;5.70;;;16.60;54.10;;;;;;3912954;30;20061;-66
2022/04/21 06:20:09;;;;;;;6.50;5.53;;;16.60;53.70;;;;;;3913664;30;20509;-66
2022/04/21 06:22:33;;;;;;;5.82;4.78;;;16.60;53.90;;;;;;3914103;30;20063;-66
2022/04/21 06:24:55;;;;;;;7.82;5.63;;;16.60;54.00;;;;;;3909980;30;20544;-66
2022/04/21 06:27:16;;;;;;;7.30;5.05;;;16.60;54.20;;;;;;3913645;30;20059;-66
2022/04/21 06:29:38;;;;;;;6.40;5.75;;;16.60;54.10;;;;;;3913919;30;20084;-66
2022/04/21 06:32:01;;;;;;;6.53;5.80;;;16.70;53.80;;;;;;3914025;30;20626;-66
2022/04/21 06:34:23;;;;;;;5.70;5.18;;;16.70;53.60;;;;;;3912626;30;20106;-66
2022/04/21 06:36:45;;;;;;;6.18;5.45;;;16.70;53.50;;;;;;3913785;30;20080;-66
2022/04/21 06:39:09;;;;;;;7.20;4.82;;;16.70;53.10;;;;;;3913433;30;20075;-69
2022/04/21 06:41:31;;;;;;;6.57;4.88;;;16.80;53.10;;;;;;3899411;30;20056;-66
2022/04/21 06:49:15;;;;;;;5.45;4.43;;;16.80;52.70;;;;;;3896739;30;20075;-66
2022/04/21 06:51:39;;;;;;;5.68;4.30;;;16.80;52.10;;;;;;3901360;30;20057;-66
2022/04/21 06:54:02;;;;;;;5.10;4.45;;;16.90;53.10;;;;;;3902321;30;20061;-67
2022/04/21 06:56:25;;;;;;;6.07;4.38;;;16.90;52.50;;;;;;3910814;30;20433;-66
2022/04/21 06:58:48;;;;;;;6.57;4.75;;;16.90;52.10;;;;;;3897740;30;20057;-66
2022/04/21 07:01:11;;;;;;;4.20;3.90;;;16.90;52.00;;;;;;3897596;30;20084;-66
2022/04/21 07:03:33;;;;;;;4.38;4.00;;;16.90;51.90;;;;;;3894611;30;20111;-65
2022/04/21 07:05:56;;;;;;;3.40;3.08;;;17.00;51.40;;;;;;3910299;30;20071;-66
2022/04/21 07:08:18;;;;;;;4.18;3.72;;;17.00;51.30;;;;;;3908805;30;20056;-66
2022/04/21 07:10:40;;;;;;;8.02;3.50;;;17.00;50.80;;;;;;3897758;30;20065;-66
2022/04/21 07:13:10;;;;;;;4.68;3.65;;;17.10;50.80;;;;;;3910898;30;20077;-66
2022/04/21 07:15:32;;;;;;;4.70;3.45;;;17.10;50.70;;;;;;3910194;30;20055;-66
2022/04/21 07:17:54;;;;;;;4.63;3.17;;;17.10;51.00;;;;;;3907473;30;20067;-65
2022/04/21 07:20:19;;;;;;;4.35;3.42;;;17.10;50.90;;;;;;3902519;30;20490;-66
2022/04/21 07:22:41;;;;;;;4.20;3.08;;;17.20;50.50;;;;;;3897687;30;20052;-66
2022/04/21 07:25:05;;;;;;;3.42;3.20;;;17.20;50.70;;;;;;3906180;30;20138;-66
2022/04/21 07:27:27;;;;;;;3.45;3.00;;;17.20;50.20;;;;;;3899741;30;20065;-67
2022/04/21 07:29:51;;;;;;;4.53;3.47;;;17.30;50.90;;;;;;3895763;30;20686;-66
2022/04/21 07:32:14;;;;;;;4.22;3.33;;;17.30;50.90;;;;;;3900833;30;20053;-66
2022/04/21 07:34:36;;;;;;;4.70;2.72;;;17.30;50.50;;;;;;3910343;30;20067;-66
2022/04/21 07:37:00;;;;;;;4.20;2.78;;;17.30;50.60;;;;;;3910083;30;20061;-66
2022/04/21 07:39:22;;;;;;;3.72;3.03;;;17.30;50.10;;;;;;3898833;30;20477;-68
2022/04/21 07:41:45;;;;;;;5.00;2.83;;;17.40;49.90;;;;;;3897834;30;20057;-68
2022/04/21 07:44:07;;;;;;;4.75;2.90;;;17.40;50.30;;;;;;3896375;30;20057;-67
2022/04/21 07:46:32;;;;;;;3.20;2.90;;;17.40;50.30;;;;;;3904949;30;20076;-68
2022/04/21 07:51:34;;;;;;;4.97;3.03;;;17.50;49.90;;;;;;3902356;30;20060;-68
2022/04/21 07:53:55;;;;;;;5.53;3.10;;;17.50;49.40;;;;;;3896226;30;20787;-68
2022/04/21 07:56:17;;;;;;;;;;;17.50;49.50;;;;;;3898302;30;20394;-68
2022/04/21 07:58:39;;;;;;;;;;;17.50;49.40;;;;;;3905285;30;20372;-68
2022/04/21 08:01:00;;;;;;;;;;;17.50;49.30;;;;;;3904188;30;20033;-68
2022/04/21 08:03:23;;;;;;;;;;;17.50;49.70;;;;;;3908494;30;19934;-68
2022/04/21 08:05:45;;;;;;;3.50;3.20;;;17.50;49.50;;;;;;3906445;30;19927;-68
2022/04/21 08:08:11;;;;;;;4.82;3.15;;;17.50;49.20;;;;;;3898995;30;20178;-67
2022/04/21 08:10:33;;;;;;;4.30;3.55;;;17.50;48.90;;;;;;3901313;30;20063;-68
2022/04/21 08:12:58;;;;;;;4.45;3.30;;;17.50;48.70;;;;;;3906676;30;20737;-68
2022/04/21 08:15:26;;;;;;;3.65;3.03;;;17.50;48.90;;;;;;3907556;30;20055;-68
2022/04/21 08:17:48;;;;;;;3.78;3.35;;;17.50;48.70;;;;;;3895005;30;20064;-68
2022/04/21 08:20:12;;;;;;;5.93;3.35;;;17.50;48.80;;;;;;3904974;30;20056;-68
2022/04/21 08:22:35;;;;;;;4.15;3.50;;;17.60;49.00;;;;;;3896544;30;20060;-68
2022/04/21 08:33:16;;;;;;;2.78;2.60;;;17.70;49.70;;;;;;3897749;30;20057;-68
2022/04/21 08:35:40;;;;;;;3.60;3.08;;;17.70;49.10;;;;;;3905244;30;20044;-67
2022/04/21 08:38:03;;;;;;;4.20;2.75;;;17.70;48.60;;;;;;3908940;30;20146;-68
2022/04/21 08:40:27;;;;;;;4.75;3.22;;;17.70;48.60;;;;;;3895870;30;20119;-68
2022/04/21 08:42:52;;;;;;;3.50;3.20;;;17.70;48.70;;;;;;3909712;30;20163;-68
2022/04/21 08:45:14;;;;;;;3.65;3.35;;;17.70;48.60;;;;;;3894695;30;20735;-68
2022/04/21 08:47:39;;;;;;;3.58;3.13;;;17.80;48.70;;;;;;3896164;30;20123;-67
2022/04/21 08:50:05;;;;;;;5.28;3.33;;;17.80;49.00;;;;;;3900346;30;20134;-68
2022/04/21 08:52:29;;;;;;;3.67;3.38;;;17.80;49.10;;;;;;3908982;30;20144;-68
2022/04/21 08:54:52;;;;;;;5.25;3.05;;;17.80;49.10;;;;;;3900959;30;20056;-67
2022/04/21 08:57:15;;;;;;;5.03;3.15;;;17.80;49.00;;;;;;3903811;30;20144;-68
2022/04/21 08:59:37;;;;;;;2.72;2.50;;;17.80;48.90;;;;;;3902408;30;20469;-67
2022/04/21 09:02:00;;;;;;;7.97;3.20;;;17.90;48.60;;;;;;3903270;30;20114;-68
2022/04/21 09:04:23;;;;;;;4.75;3.53;;;17.90;48.90;;;;;;3900222;30;20498;-67
2022/04/21 09:06:45;;;;;;;4.80;3.17;;;17.90;48.80;;;;;;3900688;30;20065;-67
2022/04/21 09:09:17;;;;;;;7.65;3.17;;;17.90;48.50;;;;;;3904866;30;20068;-67
2022/04/21 09:11:42;;;;;;;5.22;3.20;;;17.90;48.20;;;;;;3902788;30;20127;-66
2022/04/21 09:14:04;;;;;;;6.03;3.40;;;17.90;48.40;;;;;;3895337;30;20079;-68
2022/04/21 09:16:34;;;;;;;3.35;3.13;;;17.90;48.60;;;;;;3895770;30;20146;-66
2022/04/21 09:19:02;;;;;;;4.70;3.08;;;18.00;48.70;;;;;;3896308;30;20060;-66
2022/04/21 09:21:26;;;;;;;3.80;3.40;;;18.00;48.90;;;;;;3897329;30;20461;-66
2022/04/21 09:23:48;;;;;;;3.67;3.38;;;18.00;49.10;;;;;;3895747;30;20069;-66
2022/04/21 09:26:13;;;;;;;3.67;3.38;;;18.00;48.90;;;;;;3895268;30;20045;-66
2022/04/21 09:28:40;;;;;;;6.50;3.65;;;18.00;48.90;;;;;;3911550;30;20079;-66
2022/04/21 09:31:02;;;;;;;3.72;3.42;;;18.10;48.80;;;;;;3911744;30;20443;-66
2022/04/21 09:33:29;;;;;;;3.78;3.40;;;18.10;49.00;;;;;;3907011;30;20497;-66
2022/04/21 09:35:51;;;;;;;3.53;3.28;;;18.10;49.60;;;;;;3911741;30;20063;-66
2022/04/21 09:38:13;;;;;;;4.20;3.80;;;18.10;48.70;;;;;;3906839;30;20061;-66
2022/04/21 09:40:36;;;;;;;3.47;3.17;;;18.10;48.50;;;;;;3901909;30;20941;-67
2022/04/21 09:43:01;;;;;;;5.65;3.80;;;18.10;48.40;;;;;;3904469;30;20111;-66
2022/04/21 09:48:19;;;;;;;3.75;3.42;;;18.20;48.50;;;;;;3897977;30;20136;-66
2022/04/21 09:50:42;;;;;;;3.50;3.25;;;18.20;49.00;;;;;;3901794;30;20071;-67
2022/04/21 09:53:04;;;;;;;3.38;2.83;;;18.20;48.80;;;;;;3898570;30;20064;-67
2022/04/21 09:55:30;;;;;;;8.32;3.10;;;18.20;48.80;;;;;;3899948;30;20064;-67
2022/04/21 09:57:53;;;;;;;6.32;3.72;;;18.30;48.70;;;;;;3910046;30;20110;-67
2022/04/21 10:00:20;;;;;;;3.85;3.10;;;18.30;48.60;;;;;;3907669;30;20063;-66
2022/04/21 10:02:45;;;;;;;3.45;3.05;;;18.40;48.20;;;;;;3911454;30;20052;-66
2022/04/21 10:05:09;;;;;;;5.47;3.00;;;18.30;48.20;;;;;;3910115;30;20537;-66
2022/04/21 10:07:31;;;;;;;3.50;3.15;;;18.40;48.80;;;;;;3909729;30;20048;-66
2022/04/21 10:09:54;;;;;;;5.13;2.92;;;18.40;48.30;;;;;;3905394;30;20064;-67
2022/04/21 10:12:17;;;;;;;4.25;3.50;;;18.40;48.20;;;;;;3903290;30;20084;-66
2022/04/21 10:14:40;;;;;;;3.50;3.20;;;18.40;48.20;;;;;;3897231;30;20129;-66
2022/04/21 10:17:03;;;;;;;3.22;3.00;;;18.50;48.10;;;;;;3896913;30;20143;-66
2022/04/21 10:19:25;;;;;;;3.58;3.28;;;18.50;47.70;;;;;;3910943;30;20168;-66
2022/04/21 10:21:52;;;;;;;3.92;3.30;;;18.50;47.80;;;;;;3902378;30;20061;-66
2022/04/21 10:24:15;;;;;;;2.92;2.70;;;18.50;47.80;;;;;;3909484;30;20059;-66
2022/04/21 10:26:39;;;;;;;3.28;3.00;;;18.60;47.80;;;;;;3899967;30;20144;-66
2022/04/21 10:29:11;;;;;;;3.50;3.20;;;18.50;47.50;;;;;;3899452;30;20140;-67
2022/04/21 10:31:35;;;;;;;2.70;2.50;;;18.50;47.40;;;;;;3901152;30;20080;-67
2022/04/21 10:34:01;;;;;;;3.08;2.80;;;18.60;47.90;;;;;;3897920;30;20067;-67
2022/04/21 10:36:34;;;;;;;5.05;3.20;;;18.60;47.90;;;;;;3899438;30;20114;-67
2022/04/21 10:39:10;;;;;;;5.28;3.05;;;18.60;47.80;;;;;;3909672;30;20049;-67
2022/04/21 10:41:36;;;;;;;2.97;2.67;;;18.60;47.40;;;;;;3897038;30;20406;-67
2022/04/21 10:44:04;;;;;;;4.97;3.20;;;18.60;47.90;;;;;;3899103;30;20085;-66
2022/04/21 10:46:29;;;;;;;5.32;3.20;;;18.60;47.30;;;;;;3908745;30;20201;-66
2022/04/21 10:48:51;;;;;;;3.20;2.45;;;18.60;46.80;;;;;;3899554;30;20060;-67
2022/04/21 10:57:50;;;;;;;3.72;2.70;;;18.60;47.10;;;;;;3899467;30;20067;-67
2022/04/21 11:00:25;;;;;;;6.57;2.17;;;18.70;46.70;;;;;;3897909;30;20877;-66
2022/04/21 11:02:47;;;;;;;4.10;2.78;;;18.70;46.80;;;;;;3906520;30;20123;-66
2022/04/21 11:05:27;;;;;;;3.53;2.65;;;18.70;46.80;;;;;;3904297;30;20060;-66
2022/04/21 11:07:54;;;;;;;3.72;3.00;;;18.70;46.70;;;;;;3909454;30;20068;-66
2022/04/21 11:10:27;;;;;;;2.55;2.35;;;18.70;46.40;;;;;;3908453;30;20067;-66
2022/04/21 11:12:50;;;;;;;2.95;2.75;;;18.70;47.00;;;;;;3898283;30;20135;-66
2022/04/21 11:15:39;;;;;;;2.80;2.50;;;18.70;46.70;;;;;;3901675;30;20072;-66
2022/04/21 11:18:06;;;;;;;2.88;2.67;;;18.80;46.80;;;;;;3895600;30;20377;-66
2022/04/21 11:20:29;;;;;;;2.60;2.38;;;18.70;46.50;;;;;;3896362;30;20061;-66
2022/04/21 11:22:51;;;;;;;4.03;2.65;;;18.80;46.60;;;;;;3905803;30;20156;-66
2022/04/21 11:25:13;;;;;;;3.92;2.85;;;18.80;46.80;;;;;;3900807;30;20091;-66
2022/04/21 11:27:45;;;;;;;4.03;3.00;;;18.80;46.40;;;;;;3896293;30;20060;-66
2022/04/21 11:30:09;;;;;;;3.45;3.15;;;18.70;46.20;;;;;;3901022;30;20076;-66
2022/04/21 11:32:31;;;;;;;2.78;2.58;;;18.70;46.40;;;;;;3896305;30;20060;-66
2022/04/21 11:35:01;;;;;;;4.43;3.20;;;18.80;46.40;;;;;;3903415;30;20070;-66
2022/04/21 11:37:24;;;;;;;7.07;3.10;;;18.70;46.70;;;;;;3904743;30;20064;-66
2022/04/21 11:39:46;;;;;;;3.25;2.92;;;18.80;46.60;;;;;;3904536;30;20049;-67
2022/04/21 11:42:09;;;;;;;3.10;2.88;;;18.70;46.30;;;;;;3896419;30;20160;-67
2022/04/21 11:44:32;;;;;;;2.90;2.70;;;18.70;46.50;;;;;;3908780;30;20115;-66
2022/04/21 11:46:55;;;;;;;3.40;3.10;;;18.80;46.70;;;;;;3898896;30;20379;-67
2022/04/21 11:49:17;;;;;;;3.28;2.85;;;18.80;46.30;;;;;;3894286;30;20060;-66
2022/04/21 11:51:41;;;;;;;5.10;3.13;;;18.80;46.30;;;;;;3898981;30;20053;-66
2022/04/21 11:54:05;;;;;;;2.83;2.50;;;18.80;46.40;;;;;;3901924;30;20060;-66
2022/04/21 11:56:27;;;;;;;3.20;2.90;;;18.80;46.40;;;;;;3904487;30;20414;-66
2022/04/21 11:58:49;;;;;;;3.92;3.63;;;18.80;45.90;;;;;;3907123;30;20053;-66
2022/04/21 12:06:44;;;;;;;3.03;2.80;;;18.90;46.90;;;;;;3905838;30;20517;-66
2022/04/21 12:09:15;;;;;;;3.65;2.85;;;18.90;46.60;;;;;;3903864;30;20079;-67
2022/04/21 12:11:37;;;;;;;2.60;2.38;;;19.00;46.70;;;;;;3898819;30;20060;-67
2022/04/21 12:14:00;;;;;;;3.28;2.90;;;19.00;46.30;;;;;;3898369;30;20063;-66
2022/04/21 12:16:43;;;;;;;3.42;2.97;;;19.00;46.00;;;;;;3904508;30;20570;-67
2022/04/21 12:19:12;;;;;;;5.63;3.10;;;19.00;45.20;;;;;;3909419;30;20092;-67
2022/04/21 12:21:35;;;;;;;4.68;3.53;;;19.00;45.60;;;;;;3911539;30;20521;-67
2022/04/21 12:23:57;;;;;;;4.68;3.38;;;19.00;46.10;;;;;;3912111;30;20438;-67
2022/04/21 12:26:19;;;;;;;5.40;3.60;;;19.00;46.30;;;;;;3912388;30;20067;-68
2022/04/21 12:28:48;;;;;;;3.88;3.58;;;19.10;46.50;;;;;;3912487;30;20071;-68
2022/04/21 12:31:10;;;;;;;4.57;3.50;;;19.10;46.80;;;;;;3897345;30;20482;-68
2022/04/21 12:33:43;;;;;;;5.90;3.90;;;19.10;46.40;;;;;;3897816;30;20502;-67
2022/04/21 12:36:07;;;;;;;4.55;3.33;;;19.10;46.40;;;;;;3897771;30;20064;-67
2022/04/21 12:41:44;;;;;;;3.50;3.20;;;19.00;46.90;;;;;;3852775;30;20059;-67
2022/04/21 12:44:07;;;;;;;3.63;3.33;;;19.10;47.20;;;;;;3853141;30;20125;-67
2022/04/21 12:46:29;;;;;;;3.47;3.17;;;19.10;46.50;;;;;;3878332;30;20211;-67
2022/04/21 12:48:52;;;;;;;5.00;3.50;;;19.10;46.80;;;;;;3897742;30;20060;-67
2022/04/21 12:51:19;;;;;;;4.03;3.63;;;19.10;47.00;;;;;;3898769;30;20060;-67
2022/04/21 12:53:42;;;;;;;3.70;3.25;;;19.10;46.20;;;;;;3911988;30;20071;-67
2022/04/21 12:56:12;;;;;;;4.57;3.30;;;19.10;46.50;;;;;;3912433;30;20057;-67
2022/04/21 12:58:34;;;;;;;3.60;3.28;;;19.10;47.10;;;;;;3911974;30;20464;-67
2022/04/21 13:00:56;;;;;;;4.05;3.53;;;19.10;46.70;;;;;;3897647;30;20060;-67
2022/04/21 13:03:18;;;;;;;3.45;3.25;;;19.10;46.80;;;;;;3875294;30;20053;-67
2022/04/21 13:05:47;;;;;;;3.60;3.40;;;19.10;46.90;;;;;;3900308;30;20716;-67
2022/04/21 13:08:09;;;;;;;4.32;3.92;;;19.10;46.80;;;;;;3900271;30;20061;-67
2022/04/21 13:10:31;;;;;;;6.70;3.78;;;19.10;46.30;;;;;;3912022;30;20058;-67
2022/04/21 13:12:53;;;;;;;4.22;3.45;;;19.10;46.20;;;;;;3914818;30;20063;-67
2022/04/21 13:15:15;;;;;;;4.38;3.65;;;19.10;46.70;;;;;;3901564;30;20143;-67
2022/04/21 13:17:37;;;;;;;4.63;4.13;;;19.10;47.20;;;;;;3914636;30;20048;-67
2022/04/21 13:19:59;;;;;;;3.60;3.25;;;19.10;47.20;;;;;;3914797;30;20145;-67
2022/04/21 13:22:22;;;;;;;3.95;3.63;;;19.10;46.90;;;;;;3914706;30;20500;-65
2022/04/21 13:24:44;;;;;;;4.82;4.32;;;19.10;46.30;;;;;;3914406;30;20122;-64